Terminal Aerodrome Forecast
Issued by NWS

Home | Current Version | Previous Version | Text Only | Print | Product List | Glossary Off
Versions: 1 2 3 4 5 6 7 8 9 10 11 12 13 14 15 16 17 18 19 20 21 22 23 24 25 26 27 28 29 30 31 32 33 34 35 36

000
FTUS43 KLOT 230900 AAA
TAFMDW
TAF AMD
KMDW 230902Z 2309/2406 24009KT P6SM OVC015
      TEMPO 2309/2313 4SM BR
     FM231600 22013KT P6SM SCT020 SCT250
     FM240200 24008KT P6SM BKN080=

USA.gov is the U.S. government's official web portal to all federal, state and local government web resources and services.